sensor_id;sensor_type;location;lat;lon;timestamp;P1;durP1;ratioP1;P2;durP2;ratioP2
22579;SDS011;11456;47.030;15.396;2023-07-31T00:01:15;3.92;;;1.80;;
22579;SDS011;11456;47.030;15.396;2023-07-31T00:03:42;7.05;;;2.25;;
22579;SDS011;11456;47.030;15.396;2023-07-31T00:06:09;4.07;;;1.92;;
22579;SDS011;11456;47.030;15.396;2023-07-31T00:08:36;5.05;;;2.28;;
22579;SDS011;11456;47.030;15.396;2023-07-31T00:11:02;3.38;;;1.80;;
22579;SDS011;11456;47.030;15.396;2023-07-31T00:13:29;6.68;;;1.83;;
22579;SDS011;11456;47.030;15.396;2023-07-31T00:15:56;8.95;;;2.80;;
22579;SDS011;11456;47.030;15.396;2023-07-31T00:18:23;7.63;;;2.58;;
22579;SDS011;11456;47.030;15.396;2023-07-31T00:20:49;6.03;;;2.20;;
22579;SDS011;11456;47.030;15.396;2023-07-31T00:23:16;6.63;;;2.17;;
22579;SDS011;11456;47.030;15.396;2023-07-31T00:25:43;6.78;;;2.10;;
22579;SDS011;11456;47.030;15.396;2023-07-31T00:28:09;2.72;;;1.90;;
22579;SDS011;11456;47.030;15.396;2023-07-31T00:30:37;3.33;;;2.15;;
22579;SDS011;11456;47.030;15.396;2023-07-31T00:33:04;4.95;;;2.17;;
22579;SDS011;11456;47.030;15.396;2023-07-31T00:35:31;5.90;;;2.17;;
22579;SDS011;11456;47.030;15.396;2023-07-31T00:37:58;5.28;;;2.35;;
22579;SDS011;11456;47.030;15.396;2023-07-31T00:40:25;6.05;;;2.25;;
22579;SDS011;11456;47.030;15.396;2023-07-31T00:42:52;9.43;;;2.42;;
22579;SDS011;11456;47.030;15.396;2023-07-31T00:45:19;5.20;;;2.42;;
22579;SDS011;11456;47.030;15.396;2023-07-31T00:47:46;9.48;;;2.67;;
22579;SDS011;11456;47.030;15.396;2023-07-31T00:50:13;6.60;;;2.20;;
22579;SDS011;11456;47.030;15.396;2023-07-31T00:52:41;4.90;;;2.20;;
22579;SDS011;11456;47.030;15.396;2023-07-31T00:55:08;4.38;;;2.28;;
22579;SDS011;11456;47.030;15.396;2023-07-31T00:57:34;7.03;;;2.45;;
22579;SDS011;11456;47.030;15.396;2023-07-31T01:00:03;3.97;;;2.38;;
22579;SDS011;11456;47.030;15.396;2023-07-31T01:02:30;2.63;;;2.15;;
22579;SDS011;11456;47.030;15.396;2023-07-31T01:04:57;8.25;;;2.63;;
22579;SDS011;11456;47.030;15.396;2023-07-31T01:07:34;6.45;;;2.33;;
22579;SDS011;11456;47.030;15.396;2023-07-31T01:10:24;5.03;;;2.50;;
22579;SDS011;11456;47.030;15.396;2023-07-31T01:12:57;9.05;;;2.60;;
22579;SDS011;11456;47.030;15.396;2023-07-31T01:15:24;7.45;;;2.47;;
22579;SDS011;11456;47.030;15.396;2023-07-31T01:17:51;7.13;;;2.78;;
22579;SDS011;11456;47.030;15.396;2023-07-31T01:20:22;4.32;;;2.42;;
22579;SDS011;11456;47.030;15.396;2023-07-31T01:23:07;5.53;;;2.50;;
22579;SDS011;11456;47.030;15.396;2023-07-31T01:28:35;10.07;;;2.70;;
22579;SDS011;11456;47.030;15.396;2023-07-31T01:31:16;7.03;;;2.42;;
22579;SDS011;11456;47.030;15.396;2023-07-31T01:33:48;6.45;;;2.10;;
22579;SDS011;11456;47.030;15.396;2023-07-31T01:36:16;14.07;;;2.67;;
22579;SDS011;11456;47.030;15.396;2023-07-31T01:38:43;6.65;;;3.20;;
22579;SDS011;11456;47.030;15.396;2023-07-31T01:41:10;9.30;;;3.30;;
22579;SDS011;11456;47.030;15.396;2023-07-31T01:43:37;13.00;;;3.28;;
22579;SDS011;11456;47.030;15.396;2023-07-31T01:46:04;8.60;;;2.45;;
22579;SDS011;11456;47.030;15.396;2023-07-31T01:48:30;11.43;;;2.70;;
22579;SDS011;11456;47.030;15.396;2023-07-31T01:51:02;6.65;;;2.38;;
22579;SDS011;11456;47.030;15.396;2023-07-31T01:53:32;4.00;;;1.98;;
22579;SDS011;11456;47.030;15.396;2023-07-31T01:55:59;4.38;;;2.30;;
22579;SDS011;11456;47.030;15.396;2023-07-31T01:58:26;4.05;;;2.03;;
22579;SDS011;11456;47.030;15.396;2023-07-31T02:00:53;5.50;;;2.17;;
22579;SDS011;11456;47.030;15.396;2023-07-31T02:03:20;4.40;;;2.10;;
22579;SDS011;11456;47.030;15.396;2023-07-31T02:05:47;3.88;;;2.20;;
22579;SDS011;11456;47.030;15.396;2023-07-31T02:08:15;4.10;;;2.00;;
22579;SDS011;11456;47.030;15.396;2023-07-31T02:10:42;5.13;;;2.17;;
22579;SDS011;11456;47.030;15.396;2023-07-31T02:13:09;5.90;;;2.22;;
22579;SDS011;11456;47.030;15.396;2023-07-31T02:15:36;8.65;;;2.15;;
22579;SDS011;11456;47.030;15.396;2023-07-31T02:18:04;11.82;;;2.33;;
22579;SDS011;11456;47.030;15.396;2023-07-31T02:20:33;7.28;;;2.13;;
22579;SDS011;11456;47.030;15.396;2023-07-31T02:23:01;4.70;;;2.03;;
22579;SDS011;11456;47.030;15.396;2023-07-31T02:25:27;13.25;;;2.50;;
22579;SDS011;11456;47.030;15.396;2023-07-31T02:27:54;3.47;;;2.10;;
22579;SDS011;11456;47.030;15.396;2023-07-31T02:30:21;5.97;;;2.08;;
22579;SDS011;11456;47.030;15.396;2023-07-31T02:32:48;5.78;;;2.42;;
22579;SDS011;11456;47.030;15.396;2023-07-31T02:35:15;6.63;;;2.65;;
22579;SDS011;11456;47.030;15.396;2023-07-31T02:37:42;4.68;;;2.25;;
22579;SDS011;11456;47.030;15.396;2023-07-31T02:40:09;5.93;;;2.38;;
22579;SDS011;11456;47.030;15.396;2023-07-31T02:42:36;6.95;;;2.60;;
22579;SDS011;11456;47.030;15.396;2023-07-31T02:45:03;7.55;;;2.70;;
22579;SDS011;11456;47.030;15.396;2023-07-31T02:47:30;6.07;;;2.60;;
22579;SDS011;11456;47.030;15.396;2023-07-31T02:49:57;3.33;;;2.35;;
22579;SDS011;11456;47.030;15.396;2023-07-31T02:52:24;6.80;;;2.85;;
22579;SDS011;11456;47.030;15.396;2023-07-31T02:54:50;4.47;;;2.15;;
22579;SDS011;11456;47.030;15.396;2023-07-31T02:57:17;5.47;;;2.00;;
22579;SDS011;11456;47.030;15.396;2023-07-31T02:59:44;3.95;;;2.03;;
22579;SDS011;11456;47.030;15.396;2023-07-31T03:02:10;4.72;;;2.08;;
22579;SDS011;11456;47.030;15.396;2023-07-31T03:04:38;4.78;;;2.13;;
22579;SDS011;11456;47.030;15.396;2023-07-31T03:07:05;4.45;;;2.40;;
22579;SDS011;11456;47.030;15.396;2023-07-31T03:09:32;6.95;;;2.03;;
22579;SDS011;11456;47.030;15.396;2023-07-31T03:11:58;7.55;;;2.85;;
22579;SDS011;11456;47.030;15.396;2023-07-31T03:14:27;7.45;;;2.30;;
22579;SDS011;11456;47.030;15.396;2023-07-31T03:16:54;2.47;;;2.10;;
22579;SDS011;11456;47.030;15.396;2023-07-31T03:19:21;3.22;;;2.05;;
22579;SDS011;11456;47.030;15.396;2023-07-31T03:21:47;7.00;;;2.25;;
22579;SDS011;11456;47.030;15.396;2023-07-31T03:24:14;6.28;;;2.25;;
22579;SDS011;11456;47.030;15.396;2023-07-31T03:26:41;4.38;;;2.20;;
22579;SDS011;11456;47.030;15.396;2023-07-31T03:29:08;4.80;;;1.92;;
22579;SDS011;11456;47.030;15.396;2023-07-31T03:31:35;2.55;;;2.05;;
22579;SDS011;11456;47.030;15.396;2023-07-31T03:34:02;9.07;;;2.10;;
22579;SDS011;11456;47.030;15.396;2023-07-31T03:36:29;5.20;;;2.00;;
22579;SDS011;11456;47.030;15.396;2023-07-31T03:38:55;7.40;;;2.38;;
22579;SDS011;11456;47.030;15.396;2023-07-31T03:41:22;6.85;;;2.15;;
22579;SDS011;11456;47.030;15.396;2023-07-31T03:43:49;9.93;;;2.40;;
22579;SDS011;11456;47.030;15.396;2023-07-31T03:46:23;4.32;;;2.13;;
22579;SDS011;11456;47.030;15.396;2023-07-31T03:48:50;6.03;;;2.35;;
22579;SDS011;11456;47.030;15.396;2023-07-31T03:51:17;9.20;;;2.55;;
22579;SDS011;11456;47.030;15.396;2023-07-31T03:53:44;3.00;;;2.03;;
22579;SDS011;11456;47.030;15.396;2023-07-31T03:56:11;3.70;;;2.10;;
22579;SDS011;11456;47.030;15.396;2023-07-31T03:58:38;5.20;;;2.08;;
22579;SDS011;11456;47.030;15.396;2023-07-31T04:01:04;9.63;;;2.20;;
22579;SDS011;11456;47.030;15.396;2023-07-31T04:03:31;8.57;;;2.88;;
22579;SDS011;11456;47.030;15.396;2023-07-31T04:05:58;7.80;;;2.70;;
22579;SDS011;11456;47.030;15.396;2023-07-31T04:08:24;7.90;;;2.65;;
22579;SDS011;11456;47.030;15.396;2023-07-31T04:10:51;5.15;;;2.10;;
22579;SDS011;11456;47.030;15.396;2023-07-31T04:13:18;3.20;;;2.42;;
22579;SDS011;11456;47.030;15.396;2023-07-31T04:15:48;5.32;;;2.33;;
22579;SDS011;11456;47.030;15.396;2023-07-31T04:20:44;6.65;;;2.17;;
22579;SDS011;11456;47.030;15.396;2023-07-31T04:23:10;6.10;;;2.35;;
22579;SDS011;11456;47.030;15.396;2023-07-31T04:25:37;8.70;;;2.33;;
22579;SDS011;11456;47.030;15.396;2023-07-31T04:28:04;5.03;;;2.22;;
22579;SDS011;11456;47.030;15.396;2023-07-31T04:30:31;5.07;;;2.33;;
22579;SDS011;11456;47.030;15.396;2023-07-31T04:32:58;6.88;;;2.25;;
22579;SDS011;11456;47.030;15.396;2023-07-31T04:35:25;11.52;;;2.35;;
22579;SDS011;11456;47.030;15.396;2023-07-31T04:37:51;8.65;;;2.78;;
22579;SDS011;11456;47.030;15.396;2023-07-31T04:40:18;7.88;;;4.22;;
22579;SDS011;11456;47.030;15.396;2023-07-31T04:42:45;6.43;;;3.60;;
22579;SDS011;11456;47.030;15.396;2023-07-31T04:45:12;10.43;;;4.43;;
22579;SDS011;11456;47.030;15.396;2023-07-31T04:47:39;36.60;;;6.13;;
22579;SDS011;11456;47.030;15.396;2023-07-31T04:50:06;27.70;;;6.75;;
22579;SDS011;11456;47.030;15.396;2023-07-31T04:52:33;33.00;;;6.50;;
22579;SDS011;11456;47.030;15.396;2023-07-31T04:55:00;38.33;;;5.65;;
22579;SDS011;11456;47.030;15.396;2023-07-31T04:57:26;12.85;;;5.65;;
22579;SDS011;11456;47.030;15.396;2023-07-31T04:59:53;10.93;;;4.68;;
22579;SDS011;11456;47.030;15.396;2023-07-31T05:02:20;10.65;;;4.90;;
22579;SDS011;11456;47.030;15.396;2023-07-31T05:04:46;21.45;;;6.00;;
22579;SDS011;11456;47.030;15.396;2023-07-31T05:07:13;13.32;;;5.70;;
22579;SDS011;11456;47.030;15.396;2023-07-31T05:09:40;21.15;;;6.22;;
22579;SDS011;11456;47.030;15.396;2023-07-31T05:12:07;11.73;;;5.70;;
22579;SDS011;11456;47.030;15.396;2023-07-31T05:14:34;11.85;;;5.50;;
22579;SDS011;11456;47.030;15.396;2023-07-31T05:17:00;63.42;;;6.80;;
22579;SDS011;11456;47.030;15.396;2023-07-31T05:19:27;28.75;;;6.63;;
22579;SDS011;11456;47.030;15.396;2023-07-31T05:21:53;41.20;;;7.13;;
22579;SDS011;11456;47.030;15.396;2023-07-31T05:24:20;12.32;;;7.00;;
22579;SDS011;11456;47.030;15.396;2023-07-31T05:26:47;11.73;;;6.70;;
22579;SDS011;11456;47.030;15.396;2023-07-31T05:29:14;12.15;;;7.43;;
22579;SDS011;11456;47.030;15.396;2023-07-31T05:31:40;9.95;;;7.10;;
22579;SDS011;11456;47.030;15.396;2023-07-31T05:34:07;12.93;;;7.22;;
22579;SDS011;11456;47.030;15.396;2023-07-31T05:36:34;10.38;;;7.35;;
22579;SDS011;11456;47.030;15.396;2023-07-31T05:39:02;11.20;;;7.10;;
22579;SDS011;11456;47.030;15.396;2023-07-31T05:41:33;14.32;;;7.35;;
22579;SDS011;11456;47.030;15.396;2023-07-31T05:43:59;12.25;;;7.35;;
22579;SDS011;11456;47.030;15.396;2023-07-31T05:46:26;17.30;;;7.82;;
22579;SDS011;11456;47.030;15.396;2023-07-31T05:48:53;13.35;;;7.45;;
22579;SDS011;11456;47.030;15.396;2023-07-31T05:51:20;11.13;;;7.30;;
22579;SDS011;11456;47.030;15.396;2023-07-31T05:53:46;10.05;;;6.97;;
22579;SDS011;11456;47.030;15.396;2023-07-31T05:56:13;13.93;;;7.45;;
22579;SDS011;11456;47.030;15.396;2023-07-31T05:58:40;12.68;;;6.28;;
22579;SDS011;11456;47.030;15.396;2023-07-31T06:01:06;8.45;;;6.00;;
22579;SDS011;11456;47.030;15.396;2023-07-31T06:03:33;12.90;;;4.78;;
22579;SDS011;11456;47.030;15.396;2023-07-31T06:06:00;8.50;;;5.10;;
22579;SDS011;11456;47.030;15.396;2023-07-31T06:08:26;7.40;;;4.90;;
22579;SDS011;11456;47.030;15.396;2023-07-31T06:10:53;14.75;;;5.53;;
22579;SDS011;11456;47.030;15.396;2023-07-31T06:13:20;7.40;;;4.45;;
22579;SDS011;11456;47.030;15.396;2023-07-31T06:15:47;7.93;;;4.63;;
22579;SDS011;11456;47.030;15.396;2023-07-31T06:18:13;12.10;;;5.90;;
22579;SDS011;11456;47.030;15.396;2023-07-31T06:20:40;13.20;;;7.10;;
22579;SDS011;11456;47.030;15.396;2023-07-31T06:23:07;13.07;;;6.88;;
22579;SDS011;11456;47.030;15.396;2023-07-31T06:25:34;13.27;;;6.50;;
22579;SDS011;11456;47.030;15.396;2023-07-31T06:28:00;11.45;;;6.45;;
22579;SDS011;11456;47.030;15.396;2023-07-31T06:30:27;10.48;;;5.75;;
22579;SDS011;11456;47.030;15.396;2023-07-31T06:32:54;9.95;;;5.55;;
22579;SDS011;11456;47.030;15.396;2023-07-31T06:35:21;8.98;;;5.13;;
22579;SDS011;11456;47.030;15.396;2023-07-31T06:37:47;12.82;;;5.50;;
22579;SDS011;11456;47.030;15.396;2023-07-31T06:40:15;11.02;;;5.10;;
22579;SDS011;11456;47.030;15.396;2023-07-31T06:42:42;12.13;;;5.55;;
22579;SDS011;11456;47.030;15.396;2023-07-31T06:45:09;7.13;;;4.70;;
22579;SDS011;11456;47.030;15.396;2023-07-31T06:47:37;8.63;;;4.40;;
22579;SDS011;11456;47.030;15.396;2023-07-31T06:50:04;10.13;;;3.65;;
22579;SDS011;11456;47.030;15.396;2023-07-31T06:52:31;10.68;;;4.07;;
22579;SDS011;11456;47.030;15.396;2023-07-31T06:55:02;8.25;;;4.07;;
22579;SDS011;11456;47.030;15.396;2023-07-31T06:57:30;8.25;;;3.45;;
22579;SDS011;11456;47.030;15.396;2023-07-31T06:59:56;13.45;;;3.40;;
22579;SDS011;11456;47.030;15.396;2023-07-31T07:02:23;7.40;;;3.53;;
22579;SDS011;11456;47.030;15.396;2023-07-31T07:04:50;7.13;;;3.45;;
22579;SDS011;11456;47.030;15.396;2023-07-31T07:07:17;6.97;;;3.40;;
22579;SDS011;11456;47.030;15.396;2023-07-31T07:09:44;11.55;;;3.90;;
22579;SDS011;11456;47.030;15.396;2023-07-31T07:12:10;8.98;;;3.08;;
22579;SDS011;11456;47.030;15.396;2023-07-31T07:14:37;3.33;;;2.35;;
22579;SDS011;11456;47.030;15.396;2023-07-31T07:17:04;6.72;;;2.95;;
22579;SDS011;11456;47.030;15.396;2023-07-31T07:19:31;6.32;;;2.53;;
22579;SDS011;11456;47.030;15.396;2023-07-31T07:21:58;6.07;;;2.67;;
22579;SDS011;11456;47.030;15.396;2023-07-31T07:24:28;17.50;;;3.30;;
22579;SDS011;11456;47.030;15.396;2023-07-31T07:26:55;4.53;;;2.65;;
22579;SDS011;11456;47.030;15.396;2023-07-31T07:29:21;6.80;;;2.70;;
22579;SDS011;11456;47.030;15.396;2023-07-31T07:31:48;4.90;;;2.40;;
22579;SDS011;11456;47.030;15.396;2023-07-31T07:34:14;5.13;;;2.40;;
22579;SDS011;11456;47.030;15.396;2023-07-31T07:36:41;13.85;;;3.00;;
22579;SDS011;11456;47.030;15.396;2023-07-31T07:39:09;7.43;;;2.67;;
22579;SDS011;11456;47.030;15.396;2023-07-31T07:41:36;3.65;;;2.33;;
22579;SDS011;11456;47.030;15.396;2023-07-31T07:44:03;3.58;;;2.30;;
22579;SDS011;11456;47.030;15.396;2023-07-31T07:46:30;4.45;;;2.45;;
22579;SDS011;11456;47.030;15.396;2023-07-31T07:48:57;6.32;;;2.97;;
22579;SDS011;11456;47.030;15.396;2023-07-31T07:51:24;4.43;;;2.13;;
22579;SDS011;11456;47.030;15.396;2023-07-31T07:53:50;2.78;;;2.15;;
22579;SDS011;11456;47.030;15.396;2023-07-31T07:56:17;4.10;;;2.55;;
22579;SDS011;11456;47.030;15.396;2023-07-31T07:58:44;5.82;;;2.58;;
22579;SDS011;11456;47.030;15.396;2023-07-31T08:01:11;5.35;;;2.30;;
22579;SDS011;11456;47.030;15.396;2023-07-31T08:03:38;9.05;;;2.53;;
22579;SDS011;11456;47.030;15.396;2023-07-31T08:06:04;10.43;;;2.25;;
22579;SDS011;11456;47.030;15.396;2023-07-31T08:08:31;9.55;;;2.97;;
22579;SDS011;11456;47.030;15.396;2023-07-31T08:10:58;8.73;;;2.13;;
22579;SDS011;11456;47.030;15.396;2023-07-31T08:13:25;4.90;;;2.70;;
22579;SDS011;11456;47.030;15.396;2023-07-31T08:15:51;3.80;;;2.33;;
22579;SDS011;11456;47.030;15.396;2023-07-31T08:18:18;4.80;;;2.13;;
22579;SDS011;11456;47.030;15.396;2023-07-31T08:20:45;3.38;;;2.10;;
22579;SDS011;11456;47.030;15.396;2023-07-31T08:23:12;3.63;;;1.77;;
22579;SDS011;11456;47.030;15.396;2023-07-31T08:25:39;3.03;;;2.00;;
22579;SDS011;11456;47.030;15.396;2023-07-31T08:28:06;4.57;;;2.25;;
22579;SDS011;11456;47.030;15.396;2023-07-31T08:30:33;9.52;;;2.30;;
22579;SDS011;11456;47.030;15.396;2023-07-31T08:33:00;4.57;;;2.38;;
22579;SDS011;11456;47.030;15.396;2023-07-31T08:35:27;7.75;;;2.05;;
22579;SDS011;11456;47.030;15.396;2023-07-31T08:37:56;6.20;;;2.30;;
22579;SDS011;11456;47.030;15.396;2023-07-31T08:40:23;8.38;;;2.33;;
22579;SDS011;11456;47.030;15.396;2023-07-31T08:42:52;6.15;;;2.40;;
22579;SDS011;11456;47.030;15.396;2023-07-31T08:45:20;5.38;;;2.05;;
22579;SDS011;11456;47.030;15.396;2023-07-31T08:47:48;4.95;;;1.95;;
22579;SDS011;11456;47.030;15.396;2023-07-31T08:50:18;3.75;;;2.13;;
22579;SDS011;11456;47.030;15.396;2023-07-31T08:52:47;5.78;;;2.15;;
22579;SDS011;11456;47.030;15.396;2023-07-31T08:55:15;2.60;;;1.80;;
22579;SDS011;11456;47.030;15.396;2023-07-31T08:57:42;5.82;;;2.47;;
22579;SDS011;11456;47.030;15.396;2023-07-31T09:00:10;3.13;;;2.10;;
22579;SDS011;11456;47.030;15.396;2023-07-31T09:02:38;5.88;;;2.45;;
22579;SDS011;11456;47.030;15.396;2023-07-31T09:05:24;4.53;;;2.22;;
22579;SDS011;11456;47.030;15.396;2023-07-31T09:07:53;4.45;;;1.98;;
22579;SDS011;11456;47.030;15.396;2023-07-31T09:10:21;5.15;;;1.92;;
22579;SDS011;11456;47.030;15.396;2023-07-31T09:12:49;3.08;;;2.08;;
22579;SDS011;11456;47.030;15.396;2023-07-31T09:15:17;3.08;;;2.00;;
22579;SDS011;11456;47.030;15.396;2023-07-31T09:18:02;3.17;;;1.95;;
22579;SDS011;11456;47.030;15.396;2023-07-31T09:20:30;2.67;;;1.90;;
22579;SDS011;11456;47.030;15.396;2023-07-31T09:23:03;4.95;;;2.05;;
22579;SDS011;11456;47.030;15.396;2023-07-31T09:25:33;6.13;;;2.10;;
22579;SDS011;11456;47.030;15.396;2023-07-31T09:28:00;2.85;;;1.77;;
22579;SDS011;11456;47.030;15.396;2023-07-31T09:30:29;6.60;;;2.20;;
22579;SDS011;11456;47.030;15.396;2023-07-31T09:33:04;5.15;;;2.20;;
22579;SDS011;11456;47.030;15.396;2023-07-31T09:35:35;3.53;;;2.00;;
22579;SDS011;11456;47.030;15.396;2023-07-31T09:38:11;3.10;;;2.10;;
22579;SDS011;11456;47.030;15.396;2023-07-31T09:40:40;2.90;;;1.90;;
22579;SDS011;11456;47.030;15.396;2023-07-31T09:43:10;8.18;;;2.10;;
22579;SDS011;11456;47.030;15.396;2023-07-31T09:45:42;4.38;;;2.10;;
22579;SDS011;11456;47.030;15.396;2023-07-31T09:48:10;8.85;;;2.20;;
22579;SDS011;11456;47.030;15.396;2023-07-31T09:50:39;7.07;;;2.33;;
22579;SDS011;11456;47.030;15.396;2023-07-31T09:53:07;11.90;;;2.13;;
22579;SDS011;11456;47.030;15.396;2023-07-31T09:55:35;6.80;;;2.30;;
22579;SDS011;11456;47.030;15.396;2023-07-31T09:58:04;7.80;;;2.40;;
22579;SDS011;11456;47.030;15.396;2023-07-31T10:00:32;2.33;;;2.13;;
22579;SDS011;11456;47.030;15.396;2023-07-31T10:03:01;5.75;;;1.80;;
22579;SDS011;11456;47.030;15.396;2023-07-31T10:05:36;6.60;;;2.50;;
22579;SDS011;11456;47.030;15.396;2023-07-31T10:08:10;2.80;;;2.35;;
22579;SDS011;11456;47.030;15.396;2023-07-31T10:10:43;6.45;;;2.00;;
22579;SDS011;11456;47.030;15.396;2023-07-31T10:13:11;3.90;;;2.10;;
22579;SDS011;11456;47.030;15.396;2023-07-31T10:15:39;5.15;;;2.25;;
22579;SDS011;11456;47.030;15.396;2023-07-31T10:18:08;3.05;;;2.22;;
22579;SDS011;11456;47.030;15.396;2023-07-31T10:20:35;3.83;;;2.13;;
22579;SDS011;11456;47.030;15.396;2023-07-31T10:23:03;6.78;;;2.20;;
22579;SDS011;11456;47.030;15.396;2023-07-31T10:25:30;5.93;;;2.13;;
22579;SDS011;11456;47.030;15.396;2023-07-31T10:27:58;3.30;;;1.90;;
22579;SDS011;11456;47.030;15.396;2023-07-31T10:30:27;2.75;;;2.10;;
22579;SDS011;11456;47.030;15.396;2023-07-31T10:32:56;3.67;;;1.92;;
22579;SDS011;11456;47.030;15.396;2023-07-31T10:35:24;8.68;;;2.10;;
22579;SDS011;11456;47.030;15.396;2023-07-31T10:37:51;5.85;;;2.42;;
22579;SDS011;11456;47.030;15.396;2023-07-31T10:40:20;3.83;;;2.03;;
22579;SDS011;11456;47.030;15.396;2023-07-31T10:42:52;8.35;;;2.28;;
22579;SDS011;11456;47.030;15.396;2023-07-31T10:45:33;2.83;;;1.83;;
22579;SDS011;11456;47.030;15.396;2023-07-31T10:48:12;6.78;;;2.22;;
22579;SDS011;11456;47.030;15.396;2023-07-31T10:50:47;4.13;;;2.20;;
22579;SDS011;11456;47.030;15.396;2023-07-31T10:56:02;2.72;;;1.92;;
22579;SDS011;11456;47.030;15.396;2023-07-31T10:58:33;6.95;;;2.00;;
22579;SDS011;11456;47.030;15.396;2023-07-31T11:01:02;3.72;;;2.20;;
22579;SDS011;11456;47.030;15.396;2023-07-31T11:03:46;3.55;;;2.00;;
22579;SDS011;11456;47.030;15.396;2023-07-31T11:06:16;3.22;;;2.08;;
22579;SDS011;11456;47.030;15.396;2023-07-31T11:08:49;6.78;;;2.10;;
22579;SDS011;11456;47.030;15.396;2023-07-31T11:11:18;4.18;;;2.22;;
22579;SDS011;11456;47.030;15.396;2023-07-31T11:13:47;6.45;;;2.20;;
22579;SDS011;11456;47.030;15.396;2023-07-31T11:16:17;4.95;;;3.30;;
22579;SDS011;11456;47.030;15.396;2023-07-31T11:18:48;5.35;;;2.10;;
22579;SDS011;11456;47.030;15.396;2023-07-31T11:21:16;3.08;;;2.00;;
22579;SDS011;11456;47.030;15.396;2023-07-31T11:23:48;4.22;;;2.08;;
22579;SDS011;11456;47.030;15.396;2023-07-31T11:26:17;2.20;;;2.00;;
22579;SDS011;11456;47.030;15.396;2023-07-31T11:28:46;7.05;;;2.25;;
22579;SDS011;11456;47.030;15.396;2023-07-31T11:31:14;2.65;;;1.90;;
22579;SDS011;11456;47.030;15.396;2023-07-31T11:33:41;3.65;;;1.92;;
22579;SDS011;11456;47.030;15.396;2023-07-31T11:36:17;4.70;;;2.13;;
22579;SDS011;11456;47.030;15.396;2023-07-31T11:38:46;5.68;;;1.95;;
22579;SDS011;11456;47.030;15.396;2023-07-31T11:41:14;4.43;;;2.00;;
22579;SDS011;11456;47.030;15.396;2023-07-31T11:43:42;7.20;;;2.03;;
22579;SDS011;11456;47.030;15.396;2023-07-31T11:46:09;5.65;;;2.10;;
22579;SDS011;11456;47.030;15.396;2023-07-31T11:48:36;4.18;;;2.35;;
22579;SDS011;11456;47.030;15.396;2023-07-31T11:51:05;3.13;;;2.10;;
22579;SDS011;11456;47.030;15.396;2023-07-31T11:53:53;4.45;;;2.00;;
22579;SDS011;11456;47.030;15.396;2023-07-31T11:56:23;9.60;;;2.00;;
22579;SDS011;11456;47.030;15.396;2023-07-31T11:58:57;6.90;;;2.38;;
22579;SDS011;11456;47.030;15.396;2023-07-31T12:01:26;4.20;;;1.83;;
22579;SDS011;11456;47.030;15.396;2023-07-31T12:03:56;5.40;;;2.50;;
22579;SDS011;11456;47.030;15.396;2023-07-31T12:06:34;4.18;;;2.03;;
22579;SDS011;11456;47.030;15.396;2023-07-31T12:09:03;7.63;;;2.13;;
22579;SDS011;11456;47.030;15.396;2023-07-31T12:11:30;3.50;;;1.83;;
22579;SDS011;11456;47.030;15.396;2023-07-31T12:13:57;3.42;;;1.83;;
22579;SDS011;11456;47.030;15.396;2023-07-31T12:16:26;3.50;;;1.90;;
22579;SDS011;11456;47.030;15.396;2023-07-31T12:18:54;5.72;;;2.05;;
22579;SDS011;11456;47.030;15.396;2023-07-31T12:21:21;5.80;;;2.30;;
22579;SDS011;11456;47.030;15.396;2023-07-31T12:23:48;2.30;;;2.05;;
22579;SDS011;11456;47.030;15.396;2023-07-31T12:26:16;3.63;;;2.05;;
22579;SDS011;11456;47.030;15.396;2023-07-31T12:28:46;2.97;;;2.00;;
22579;SDS011;11456;47.030;15.396;2023-07-31T12:31:15;5.82;;;2.60;;
22579;SDS011;11456;47.030;15.396;2023-07-31T12:33:46;3.92;;;2.00;;
22579;SDS011;11456;47.030;15.396;2023-07-31T12:36:17;10.48;;;2.40;;
22579;SDS011;11456;47.030;15.396;2023-07-31T12:38:45;3.42;;;2.20;;
22579;SDS011;11456;47.030;15.396;2023-07-31T12:41:12;2.85;;;2.00;;
22579;SDS011;11456;47.030;15.396;2023-07-31T12:43:39;3.40;;;2.50;;
22579;SDS011;11456;47.030;15.396;2023-07-31T12:46:07;5.60;;;1.88;;
22579;SDS011;11456;47.030;15.396;2023-07-31T12:48:35;4.20;;;1.80;;
22579;SDS011;11456;47.030;15.396;2023-07-31T12:51:02;3.55;;;2.00;;
22579;SDS011;11456;47.030;15.396;2023-07-31T12:53:30;5.80;;;2.40;;
22579;SDS011;11456;47.030;15.396;2023-07-31T12:55:57;4.72;;;2.10;;
22579;SDS011;11456;47.030;15.396;2023-07-31T12:58:23;2.72;;;2.20;;
22579;SDS011;11456;47.030;15.396;2023-07-31T13:00:51;3.95;;;2.10;;
22579;SDS011;11456;47.030;15.396;2023-07-31T13:03:17;4.25;;;2.20;;
22579;SDS011;11456;47.030;15.396;2023-07-31T13:05:44;4.57;;;2.10;;
22579;SDS011;11456;47.030;15.396;2023-07-31T13:08:11;2.65;;;2.08;;
22579;SDS011;11456;47.030;15.396;2023-07-31T13:10:38;6.68;;;2.22;;
22579;SDS011;11456;47.030;15.396;2023-07-31T13:13:05;2.88;;;1.90;;
22579;SDS011;11456;47.030;15.396;2023-07-31T13:15:32;5.85;;;2.20;;
22579;SDS011;11456;47.030;15.396;2023-07-31T13:17:59;3.85;;;2.20;;
22579;SDS011;11456;47.030;15.396;2023-07-31T13:20:26;2.53;;;1.85;;
22579;SDS011;11456;47.030;15.396;2023-07-31T13:22:53;6.75;;;2.08;;
22579;SDS011;11456;47.030;15.396;2023-07-31T13:25:20;2.53;;;1.90;;
22579;SDS011;11456;47.030;15.396;2023-07-31T13:27:47;2.63;;;1.85;;
22579;SDS011;11456;47.030;15.396;2023-07-31T13:30:13;5.57;;;2.05;;
22579;SDS011;11456;47.030;15.396;2023-07-31T13:32:40;6.35;;;2.10;;
22579;SDS011;11456;47.030;15.396;2023-07-31T13:35:07;4.63;;;2.10;;
22579;SDS011;11456;47.030;15.396;2023-07-31T13:37:34;6.78;;;2.65;;
22579;SDS011;11456;47.030;15.396;2023-07-31T13:40:01;5.43;;;2.10;;
22579;SDS011;11456;47.030;15.396;2023-07-31T13:42:31;4.63;;;2.03;;
22579;SDS011;11456;47.030;15.396;2023-07-31T13:44:59;3.42;;;2.10;;
22579;SDS011;11456;47.030;15.396;2023-07-31T13:47:28;3.75;;;2.47;;
22579;SDS011;11456;47.030;15.396;2023-07-31T13:49:55;5.00;;;1.90;;
22579;SDS011;11456;47.030;15.396;2023-07-31T13:52:22;6.00;;;2.28;;
22579;SDS011;11456;47.030;15.396;2023-07-31T13:54:48;3.28;;;2.17;;
22579;SDS011;11456;47.030;15.396;2023-07-31T13:57:15;3.92;;;2.33;;
22579;SDS011;11456;47.030;15.396;2023-07-31T13:59:42;8.02;;;2.17;;
22579;SDS011;11456;47.030;15.396;2023-07-31T14:02:09;3.08;;;2.03;;
22579;SDS011;11456;47.030;15.396;2023-07-31T14:04:36;3.08;;;2.25;;
22579;SDS011;11456;47.030;15.396;2023-07-31T14:07:03;3.03;;;2.17;;
22579;SDS011;11456;47.030;15.396;2023-07-31T14:09:31;11.13;;;2.50;;
22579;SDS011;11456;47.030;15.396;2023-07-31T14:11:57;5.72;;;2.15;;
22579;SDS011;11456;47.030;15.396;2023-07-31T14:14:24;5.80;;;2.17;;
22579;SDS011;11456;47.030;15.396;2023-07-31T14:16:51;2.28;;;1.90;;
22579;SDS011;11456;47.030;15.396;2023-07-31T14:19:18;4.88;;;2.03;;
22579;SDS011;11456;47.030;15.396;2023-07-31T14:21:45;4.10;;;1.90;;
22579;SDS011;11456;47.030;15.396;2023-07-31T14:24:31;6.75;;;2.05;;
22579;SDS011;11456;47.030;15.396;2023-07-31T14:26:58;8.15;;;2.28;;
22579;SDS011;11456;47.030;15.396;2023-07-31T14:29:25;4.03;;;2.20;;
22579;SDS011;11456;47.030;15.396;2023-07-31T14:31:52;3.17;;;2.17;;
22579;SDS011;11456;47.030;15.396;2023-07-31T14:34:18;3.45;;;2.30;;
22579;SDS011;11456;47.030;15.396;2023-07-31T14:36:45;3.38;;;2.13;;
22579;SDS011;11456;47.030;15.396;2023-07-31T14:39:13;2.60;;;2.10;;
22579;SDS011;11456;47.030;15.396;2023-07-31T14:41:40;4.00;;;2.00;;
22579;SDS011;11456;47.030;15.396;2023-07-31T14:44:07;4.32;;;2.10;;
22579;SDS011;11456;47.030;15.396;2023-07-31T14:46:34;4.90;;;2.47;;